Time;durP1;ratioP1;P1;durP2;ratioP2;P2;SDS_P1;SDS_P2;PMS_P1;PMS_P2;Temp;Humidity;BMP_temperature;BMP_pressure;BME280_temperature;BME280_humidity;BME280_pressure;Samples;Min_cycle;Max_cycle;Signal;HPM_P1;HPM_P2
2024/01/13 00:00:27;;;;;;;14.48;1.58;;;;;;;;;;5032337;28;20084;-77
2024/01/13 00:02:53;;;;;;;6.00;1.67;;;;;;;;;;5025203;28;20041;-77
2024/01/13 00:05:19;;;;;;;5.93;2.00;;;;;;;;;;5015486;28;20021;-77
2024/01/13 00:07:45;;;;;;;20.20;7.57;;;;;;;;;;5027089;28;20060;-76
2024/01/13 00:10:11;;;;;;;15.38;5.10;;;;;;;;;;5017237;28;20029;-83
2024/01/13 00:12:37;;;;;;;9.13;1.60;;;;;;;;;;5020992;28;20042;-78
2024/01/13 00:15:03;;;;;;;10.43;1.73;;;;;;;;;;5010852;28;20036;-77
2024/01/13 00:17:29;;;;;;;5.45;1.60;;;;;;;;;;5023879;28;20033;-77
2024/01/13 00:19:55;;;;;;;4.60;1.55;;;;;;;;;;5022603;28;20514;-76
2024/01/13 00:22:21;;;;;;;4.38;1.77;;;;;;;;;;5016659;28;20506;-77
2024/01/13 00:24:47;;;;;;;8.05;1.60;;;;;;;;;;5014042;28;20030;-75
2024/01/13 00:27:13;;;;;;;5.25;3.45;;;;;;;;;;5010420;28;20026;-76
2024/01/13 00:29:39;;;;;;;10.38;2.00;;;;;;;;;;5017563;28;20044;-76
2024/01/13 00:32:06;;;;;;;7.65;2.30;;;;;;;;;;5017686;28;20125;-77
2024/01/13 00:34:32;;;;;;;6.72;1.83;;;;;;;;;;5014978;28;20096;-76
2024/01/13 00:36:58;;;;;;;11.60;1.77;;;;;;;;;;5014804;28;20037;-76
2024/01/13 00:39:24;;;;;;;6.20;1.90;;;;;;;;;;5016901;28;20025;-77
2024/01/13 00:41:50;;;;;;;5.80;1.80;;;;;;;;;;5025054;28;20072;-77
2024/01/13 00:44:16;;;;;;;3.75;1.80;;;;;;;;;;5020712;28;20439;-77
2024/01/13 00:46:42;;;;;;;5.78;1.80;;;;;;;;;;5026615;28;20732;-78
2024/01/13 00:49:08;;;;;;;7.70;2.53;;;;;;;;;;5017855;28;20033;-76
2024/01/13 00:51:35;;;;;;;4.38;1.88;;;;;;;;;;5021552;28;20034;-77
2024/01/13 00:54:05;;;;;;;6.82;1.98;;;;;;;;;;5013764;28;20069;-77
2024/01/13 00:56:32;;;;;;;8.48;2.40;;;;;;;;;;5015283;28;20537;-77
2024/01/13 00:58:58;;;;;;;4.63;2.40;;;;;;;;;;5013133;28;20513;-78
2024/01/13 01:01:24;;;;;;;7.35;3.00;;;;;;;;;;5012370;28;20029;-78
2024/01/13 01:03:50;;;;;;;17.23;2.67;;;;;;;;;;5013689;28;20069;-78
2024/01/13 01:06:16;;;;;;;5.20;2.63;;;;;;;;;;5016913;28;20057;-78
2024/01/13 01:08:42;;;;;;;7.55;2.28;;;;;;;;;;5006289;28;20550;-77
2024/01/13 01:11:09;;;;;;;7.28;2.53;;;;;;;;;;5023298;28;20021;-78
2024/01/13 01:13:35;;;;;;;11.35;2.40;;;;;;;;;;5024643;28;20041;-78
2024/01/13 01:16:02;;;;;;;8.60;2.42;;;;;;;;;;5017527;28;20033;-77
2024/01/13 01:18:28;;;;;;;5.63;2.75;;;;;;;;;;5021260;28;20029;-77
2024/01/13 01:20:54;;;;;;;9.68;3.08;;;;;;;;;;5025707;28;20040;-77
2024/01/13 01:23:20;;;;;;;6.47;3.22;;;;;;;;;;5020377;28;21111;-77
2024/01/13 01:25:46;;;;;;;14.00;3.38;;;;;;;;;;5025221;28;20372;-77
2024/01/13 01:28:12;;;;;;;15.02;3.17;;;;;;;;;;5024226;28;20022;-76
2024/01/13 01:30:38;;;;;;;8.88;2.80;;;;;;;;;;5013884;28;20032;-77
2024/01/13 01:33:04;;;;;;;14.65;3.33;;;;;;;;;;5025774;28;20037;-77
2024/01/13 01:35:30;;;;;;;11.85;3.25;;;;;;;;;;5027628;28;20617;-77
2024/01/13 01:37:56;;;;;;;11.55;2.80;;;;;;;;;;5027814;28;20049;-78
2024/01/13 01:40:26;;;;;;;13.50;3.22;;;;;;;;;;5012138;28;20501;-77
2024/01/13 01:42:52;;;;;;;11.82;2.90;;;;;;;;;;5011829;28;20045;-77
2024/01/13 01:45:18;;;;;;;12.52;3.33;;;;;;;;;;5012179;28;20021;-77
2024/01/13 01:47:45;;;;;;;17.20;2.75;;;;;;;;;;5029261;28;20471;-77
2024/01/13 01:50:12;;;;;;;12.48;3.10;;;;;;;;;;5018088;28;20033;-76
2024/01/13 01:52:38;;;;;;;19.25;3.38;;;;;;;;;;5029014;28;20110;-76
2024/01/13 01:55:05;;;;;;;8.73;2.60;;;;;;;;;;5019055;28;20049;-77
2024/01/13 01:57:32;;;;;;;11.20;3.42;;;;;;;;;;5013167;28;20045;-77
2024/01/13 01:59:59;;;;;;;7.72;3.75;;;;;;;;;;5012904;28;20022;-76
2024/01/13 02:02:26;;;;;;;11.38;2.47;;;;;;;;;;5037244;28;20108;-76
2024/01/13 02:04:54;;;;;;;9.80;3.45;;;;;;;;;;5008685;28;20030;-76
2024/01/13 02:07:20;;;;;;;11.98;2.67;;;;;;;;;;5022374;28;20048;-76
2024/01/13 02:09:47;;;;;;;13.95;3.00;;;;;;;;;;5008659;28;20036;-76
2024/01/13 02:12:13;;;;;;;8.50;2.53;;;;;;;;;;5015467;28;20091;-77
2024/01/13 02:14:39;;;;;;;9.77;2.60;;;;;;;;;;5021940;28;20029;-77
2024/01/13 02:17:05;;;;;;;7.20;3.20;;;;;;;;;;5024619;28;20041;-76
2024/01/13 02:19:32;;;;;;;9.52;2.38;;;;;;;;;;5015941;28;20030;-76
2024/01/13 02:22:00;;;;;;;10.02;3.83;;;;;;;;;;5015660;28;20041;-76
2024/01/13 02:24:26;;;;;;;13.95;2.38;;;;;;;;;;5015508;28;20067;-76
2024/01/13 02:26:52;;;;;;;10.80;2.45;;;;;;;;;;5021601;28;20036;-76
2024/01/13 02:29:18;;;;;;;4.63;2.15;;;;;;;;;;5034190;28;20379;-75
2024/01/13 02:31:44;;;;;;;8.00;2.47;;;;;;;;;;5034789;28;20025;-76
2024/01/13 02:34:10;;;;;;;12.95;2.92;;;;;;;;;;5014559;28;20038;-76
2024/01/13 02:36:36;;;;;;;14.85;2.60;;;;;;;;;;5038648;28;20033;-76
2024/01/13 02:39:02;;;;;;;15.20;3.35;;;;;;;;;;5039857;28;20108;-75
2024/01/13 02:41:28;;;;;;;13.50;2.60;;;;;;;;;;5007419;28;20113;-76
2024/01/13 02:43:54;;;;;;;12.00;2.65;;;;;;;;;;5034844;28;20494;-76
2024/01/13 02:46:20;;;;;;;12.98;2.97;;;;;;;;;;5032572;28;20024;-76
2024/01/13 02:48:47;;;;;;;7.20;2.58;;;;;;;;;;5016270;28;20071;-76
2024/01/13 02:51:15;;;;;;;10.68;2.58;;;;;;;;;;5028277;28;20037;-76
2024/01/13 02:53:41;;;;;;;14.07;2.65;;;;;;;;;;5026561;28;20041;-76
2024/01/13 02:56:07;;;;;;;12.55;2.67;;;;;;;;;;5018747;28;20048;-76
2024/01/13 02:58:33;;;;;;;9.77;2.78;;;;;;;;;;5027504;28;20072;-76
2024/01/13 03:00:59;;;;;;;16.05;3.22;;;;;;;;;;5033964;28;20029;-76
2024/01/13 03:03:25;;;;;;;7.75;2.33;;;;;;;;;;5017462;28;20045;-76
2024/01/13 03:05:51;;;;;;;19.08;2.60;;;;;;;;;;5015861;28;20558;-76
2024/01/13 03:08:17;;;;;;;14.02;3.10;;;;;;;;;;5016400;28;20144;-76
2024/01/13 03:10:43;;;;;;;8.52;2.30;;;;;;;;;;5031164;28;20045;-77
2024/01/13 03:13:09;;;;;;;9.77;2.50;;;;;;;;;;5017889;28;20042;-76
2024/01/13 03:15:37;;;;;;;10.73;2.15;;;;;;;;;;5035015;28;20033;-76
2024/01/13 03:18:03;;;;;;;11.68;2.60;;;;;;;;;;5021877;28;20034;-76
2024/01/13 03:20:29;;;;;;;11.30;2.60;;;;;;;;;;5014717;28;20040;-77
2024/01/13 03:22:55;;;;;;;15.07;2.75;;;;;;;;;;5037250;28;20124;-76
2024/01/13 03:25:21;;;;;;;11.93;3.20;;;;;;;;;;5025244;28;20061;-77
2024/01/13 03:27:47;;;;;;;12.35;2.60;;;;;;;;;;5023828;28;20062;-77
2024/01/13 03:30:13;;;;;;;7.93;2.63;;;;;;;;;;5034826;28;20021;-77
2024/01/13 03:32:39;;;;;;;13.77;2.58;;;;;;;;;;5026951;28;20116;-77
2024/01/13 03:35:05;;;;;;;14.60;2.95;;;;;;;;;;5010354;28;20511;-76
2024/01/13 03:37:31;;;;;;;12.25;2.85;;;;;;;;;;5013688;28;20088;-76
2024/01/13 03:39:57;;;;;;;14.95;2.70;;;;;;;;;;5020485;28;20056;-76
2024/01/13 03:42:23;;;;;;;10.65;2.30;;;;;;;;;;5028323;28;20033;-76
2024/01/13 03:44:49;;;;;;;12.73;2.42;;;;;;;;;;5015190;28;20066;-78
2024/01/13 03:47:15;;;;;;;7.90;2.15;;;;;;;;;;5022607;28;20038;-77
2024/01/13 03:49:41;;;;;;;9.88;2.53;;;;;;;;;;5010668;28;20030;-76
2024/01/13 03:52:08;;;;;;;8.65;2.40;;;;;;;;;;5010784;28;20034;-76
2024/01/13 03:54:34;;;;;;;9.30;2.70;;;;;;;;;;5017460;28;20034;-77
2024/01/13 03:57:00;;;;;;;11.90;2.65;;;;;;;;;;5031031;28;20033;-77
2024/01/13 03:59:26;;;;;;;7.13;2.22;;;;;;;;;;5004101;28;20495;-76
2024/01/13 04:01:52;;;;;;;19.42;2.58;;;;;;;;;;5026265;28;20072;-76
2024/01/13 04:04:18;;;;;;;7.72;2.67;;;;;;;;;;5008500;28;20400;-77
2024/01/13 04:06:44;;;;;;;15.18;2.90;;;;;;;;;;5010855;28;20042;-76
2024/01/13 04:09:10;;;;;;;9.68;2.90;;;;;;;;;;5027257;28;20041;-78
2024/01/13 04:11:36;;;;;;;13.00;3.25;;;;;;;;;;5011043;28;20037;-77
2024/01/13 04:14:02;;;;;;;7.53;2.67;;;;;;;;;;5024604;28;20107;-77
2024/01/13 04:16:28;;;;;;;14.73;2.75;;;;;;;;;;5012100;28;20426;-77
2024/01/13 04:18:54;;;;;;;9.10;2.42;;;;;;;;;;5007616;28;20533;-77
2024/01/13 04:21:20;;;;;;;8.50;2.50;;;;;;;;;;5010792;28;20033;-76
2024/01/13 04:23:46;;;;;;;8.00;2.22;;;;;;;;;;5025033;28;20044;-76
2024/01/13 04:26:12;;;;;;;15.15;3.80;;;;;;;;;;5024071;28;20087;-76
2024/01/13 04:28:38;;;;;;;9.05;2.72;;;;;;;;;;5016555;28;20522;-76
2024/01/13 04:31:07;;;;;;;23.88;3.53;;;;;;;;;;5019163;28;20092;-76
2024/01/13 04:33:33;;;;;;;13.02;2.53;;;;;;;;;;5041965;28;20060;-76
2024/01/13 04:35:59;;;;;;;7.25;2.28;;;;;;;;;;5010658;28;20038;-76
2024/01/13 04:38:25;;;;;;;7.30;1.95;;;;;;;;;;5019938;28;20048;-77
2024/01/13 04:40:51;;;;;;;9.05;1.70;;;;;;;;;;5012439;28;20062;-77
2024/01/13 04:43:17;;;;;;;9.68;2.30;;;;;;;;;;5026318;28;20081;-77
2024/01/13 04:45:43;;;;;;;7.40;2.03;;;;;;;;;;5020735;28;20033;-76
2024/01/13 04:48:09;;;;;;;10.23;1.98;;;;;;;;;;5045187;28;20546;-76
2024/01/13 04:50:35;;;;;;;10.90;2.08;;;;;;;;;;5029944;28;20371;-77
2024/01/13 04:53:01;;;;;;;7.03;2.00;;;;;;;;;;5019115;28;20535;-77
2024/01/13 04:55:27;;;;;;;6.38;1.80;;;;;;;;;;5036607;28;20057;-76
2024/01/13 04:57:53;;;;;;;11.77;3.05;;;;;;;;;;5045272;28;20053;-76
2024/01/13 05:00:19;;;;;;;6.57;2.05;;;;;;;;;;5036185;28;20032;-77
2024/01/13 05:02:45;;;;;;;10.27;2.15;;;;;;;;;;5011241;28;20128;-76
2024/01/13 05:05:11;;;;;;;3.78;2.30;;;;;;;;;;5010702;28;20396;-77
2024/01/13 05:07:39;;;;;;;8.50;2.28;;;;;;;;;;5024387;28;20050;-77
2024/01/13 05:10:07;;;;;;;10.60;1.60;;;;;;;;;;5019819;28;20046;-77
2024/01/13 05:12:33;;;;;;;8.63;1.60;;;;;;;;;;5018974;28;20025;-77
2024/01/13 05:14:59;;;;;;;9.52;1.60;;;;;;;;;;5022260;28;20038;-77
2024/01/13 05:17:25;;;;;;;12.98;1.95;;;;;;;;;;5016268;28;20470;-77
2024/01/13 05:19:51;;;;;;;4.88;1.40;;;;;;;;;;5010181;28;20041;-76
2024/01/13 05:22:17;;;;;;;10.57;1.95;;;;;;;;;;5020917;28;20095;-76
2024/01/13 05:24:43;;;;;;;4.35;1.20;;;;;;;;;;5009206;28;20022;-76
2024/01/13 05:27:09;;;;;;;10.13;1.95;;;;;;;;;;5017259;28;20399;-76
2024/01/13 05:29:35;;;;;;;10.35;2.08;;;;;;;;;;5014031;28;20030;-76
2024/01/13 05:32:01;;;;;;;6.55;1.20;;;;;;;;;;5025957;28;20026;-76
2024/01/13 05:34:27;;;;;;;6.03;1.20;;;;;;;;;;5018570;28;20034;-76
2024/01/13 05:36:53;;;;;;;2.85;1.40;;;;;;;;;;5027901;28;20521;-76
2024/01/13 05:39:19;;;;;;;5.70;1.10;;;;;;;;;;5028823;28;20056;-78
2024/01/13 05:41:45;;;;;;;10.85;1.40;;;;;;;;;;5014872;28;20038;-76
2024/01/13 05:44:11;;;;;;;6.68;1.55;;;;;;;;;;5024922;28;20043;-77
2024/01/13 05:46:37;;;;;;;3.85;1.15;;;;;;;;;;5039623;28;20029;-77
2024/01/13 05:49:03;;;;;;;5.13;1.30;;;;;;;;;;5014153;28;20026;-76
2024/01/13 05:51:30;;;;;;;10.38;4.28;;;;;;;;;;5020248;28;20025;-82
2024/01/13 05:53:56;;;;;;;2.83;1.40;;;;;;;;;;5027926;28;20041;-77
2024/01/13 05:56:22;;;;;;;7.05;1.27;;;;;;;;;;5019790;28;20641;-76
2024/01/13 05:58:48;;;;;;;6.05;1.33;;;;;;;;;;5011349;28;20025;-75
2024/01/13 06:01:14;;;;;;;2.28;1.48;;;;;;;;;;5021278;28;20229;-77
2024/01/13 06:03:40;;;;;;;5.40;1.10;;;;;;;;;;5005892;28;20042;-77
2024/01/13 06:06:08;;;;;;;3.28;1.52;;;;;;;;;;5010138;28;20061;-76
2024/01/13 06:08:34;;;;;;;2.03;1.10;;;;;;;;;;5018766;28;20126;-76
2024/01/13 06:11:03;;;;;;;3.60;1.23;;;;;;;;;;5016899;28;20109;-76
2024/01/13 06:13:29;;;;;;;3.58;1.30;;;;;;;;;;5009985;28;20042;-75
2024/01/13 06:15:55;;;;;;;1.40;0.80;;;;;;;;;;5024740;28;20405;-76
2024/01/13 06:18:22;;;;;;;7.85;2.65;;;;;;;;;;5032748;28;20492;-76
2024/01/13 06:20:47;;;;;;;5.18;1.00;;;;;;;;;;5008960;28;20025;-76
2024/01/13 06:23:13;;;;;;;7.50;1.40;;;;;;;;;;5017099;28;20041;-75
2024/01/13 06:25:40;;;;;;;6.00;1.08;;;;;;;;;;5028440;28;20033;-76
2024/01/13 06:28:06;;;;;;;7.07;1.17;;;;;;;;;;5025092;28;20029;-76
2024/01/13 06:30:31;;;;;;;3.25;1.00;;;;;;;;;;5015969;28;20021;-76
2024/01/13 06:32:58;;;;;;;1.35;0.65;;;;;;;;;;5009851;28;20515;-77
2024/01/13 06:35:24;;;;;;;4.60;0.93;;;;;;;;;;5014288;28;20029;-78
2024/01/13 06:37:50;;;;;;;1.10;0.73;;;;;;;;;;5010748;28;20025;-78
2024/01/13 06:40:16;;;;;;;4.13;1.02;;;;;;;;;;5017144;28;20038;-76
2024/01/13 06:42:43;;;;;;;2.97;1.23;;;;;;;;;;5026635;28;20048;-76
2024/01/13 06:45:09;;;;;;;3.20;1.27;;;;;;;;;;5023856;28;20095;-76
2024/01/13 06:47:35;;;;;;;3.28;0.70;;;;;;;;;;5009890;28;20021;-76
2024/01/13 06:50:01;;;;;;;2.97;0.70;;;;;;;;;;5024959;28;20049;-76
2024/01/13 06:52:27;;;;;;;1.52;0.80;;;;;;;;;;5008615;28;20048;-75
2024/01/13 06:54:53;;;;;;;2.58;1.00;;;;;;;;;;5008510;28;20053;-76
2024/01/13 06:57:20;;;;;;;3.33;0.88;;;;;;;;;;5010045;28;20372;-76
2024/01/13 06:59:46;;;;;;;2.72;1.20;;;;;;;;;;5041616;28;20382;-75
2024/01/13 07:02:14;;;;;;;7.00;0.98;;;;;;;;;;5018264;28;20036;-77
2024/01/13 07:04:41;;;;;;;3.55;1.13;;;;;;;;;;5008610;28;20037;-76
2024/01/13 07:07:08;;;;;;;3.15;1.30;;;;;;;;;;5011817;28;20081;-76
2024/01/13 07:09:34;;;;;;;2.53;0.90;;;;;;;;;;5022456;28;20787;-78
2024/01/13 07:12:00;;;;;;;1.02;0.80;;;;;;;;;;5012639;28;20164;-76
2024/01/13 07:14:27;;;;;;;4.32;1.38;;;;;;;;;;5012075;28;20128;-77
2024/01/13 07:16:53;;;;;;;4.15;1.10;;;;;;;;;;5039763;28;20124;-76
2024/01/13 07:19:20;;;;;;;7.22;1.30;;;;;;;;;;5014244;28;20471;-77
2024/01/13 07:21:46;;;;;;;8.27;2.03;;;;;;;;;;5010380;28;20034;-76
2024/01/13 07:24:12;;;;;;;5.65;1.50;;;;;;;;;;5013645;28;20091;-77
2024/01/13 07:26:41;;;;;;;7.38;2.53;;;;;;;;;;5012318;28;20029;-76
2024/01/13 07:29:07;;;;;;;4.78;1.80;;;;;;;;;;5013921;28;20034;-76
2024/01/13 07:31:33;;;;;;;8.02;2.05;;;;;;;;;;5031927;28;20220;-76
2024/01/13 07:34:00;;;;;;;3.15;2.20;;;;;;;;;;5028187;28;20043;-77
2024/01/13 07:36:27;;;;;;;6.20;2.60;;;;;;;;;;5031872;28;20029;-76
2024/01/13 07:38:53;;;;;;;8.20;3.17;;;;;;;;;;5025608;28;20033;-75
2024/01/13 07:41:20;;;;;;;8.00;4.13;;;;;;;;;;5029528;28;20030;-77
2024/01/13 07:43:46;;;;;;;11.20;5.70;;;;;;;;;;5029710;28;20053;-76
2024/01/13 07:46:12;;;;;;;15.65;8.15;;;;;;;;;;5021758;28;20505;-77
2024/01/13 07:48:38;;;;;;;16.83;9.55;;;;;;;;;;5026339;28;20022;-77
2024/01/13 07:51:05;;;;;;;20.75;11.32;;;;;;;;;;5029520;28;20060;-77
2024/01/13 07:53:31;;;;;;;23.48;9.32;;;;;;;;;;5031319;28;20025;-76
2024/01/13 07:55:59;;;;;;;21.67;10.60;;;;;;;;;;5027055;28;20445;-77
2024/01/13 07:58:25;;;;;;;20.70;11.27;;;;;;;;;;5024194;28;20105;-77
2024/01/13 08:00:52;;;;;;;27.33;12.40;;;;;;;;;;5027105;28;20030;-77
2024/01/13 08:03:18;;;;;;;23.38;12.63;;;;;;;;;;5031446;28;20147;-76
2024/01/13 08:05:45;;;;;;;34.45;18.67;;;;;;;;;;5012646;28;20033;-76
2024/01/13 08:08:11;;;;;;;35.55;18.88;;;;;;;;;;5030963;28;20057;-76
2024/01/13 08:10:38;;;;;;;34.03;18.10;;;;;;;;;;5025654;28;20082;-77
2024/01/13 08:13:05;;;;;;;36.13;19.77;;;;;;;;;;5010992;28;20041;-77
2024/01/13 08:15:31;;;;;;;44.92;21.38;;;;;;;;;;5023154;28;20029;-78
2024/01/13 08:17:57;;;;;;;41.25;22.60;;;;;;;;;;5012704;28;20029;-77
2024/01/13 08:20:23;;;;;;;42.55;23.35;;;;;;;;;;5030267;28;20083;-77
2024/01/13 08:22:49;;;;;;;51.10;24.13;;;;;;;;;;5029083;28;20037;-76
2024/01/13 08:25:15;;;;;;;46.28;25.92;;;;;;;;;;5030839;28;20037;-77
2024/01/13 08:27:41;;;;;;;58.70;26.92;;;;;;;;;;5012902;28;20033;-76
2024/01/13 08:30:08;;;;;;;65.90;30.58;;;;;;;;;;5014799;28;20109;-76
2024/01/13 08:32:34;;;;;;;61.92;32.15;;;;;;;;;;5029048;28;20033;-77
2024/01/13 08:35:00;;;;;;;66.65;33.65;;;;;;;;;;5027927;28;20056;-76
2024/01/13 08:37:26;;;;;;;65.15;34.58;;;;;;;;;;5014962;28;20538;-77
2024/01/13 08:39:52;;;;;;;76.32;43.13;;;;;;;;;;5016661;28;20022;-76
2024/01/13 08:42:18;;;;;;;122.80;44.05;;;;;;;;;;5050052;28;20021;-76
2024/01/13 08:44:44;;;;;;;73.13;38.17;;;;;;;;;;5034488;28;20044;-76
2024/01/13 08:47:10;;;;;;;67.30;37.00;;;;;;;;;;5015120;28;20375;-76
2024/01/13 08:49:36;;;;;;;69.28;37.35;;;;;;;;;;5029115;28;20022;-77
2024/01/13 08:52:03;;;;;;;66.30;35.50;;;;;;;;;;5020977;28;20100;-77
2024/01/13 08:54:29;;;;;;;58.28;34.90;;;;;;;;;;5011617;28;20033;-77
2024/01/13 08:56:55;;;;;;;61.50;33.40;;;;;;;;;;5029971;28;20025;-76
2024/01/13 08:59:21;;;;;;;60.45;36.08;;;;;;;;;;5024583;28;20026;-76
2024/01/13 09:01:47;;;;;;;61.20;35.08;;;;;;;;;;5025485;28;20034;-76
2024/01/13 09:04:13;;;;;;;64.43;36.15;;;;;;;;;;5029872;28;20041;-76
2024/01/13 09:06:42;;;;;;;77.05;37.55;;;;;;;;;;5021618;28;20471;-76
2024/01/13 09:09:09;;;;;;;67.38;38.35;;;;;;;;;;5027387;28;20056;-76
2024/01/13 09:11:35;;;;;;;66.72;38.17;;;;;;;;;;5021564;28;20025;-77
2024/01/13 09:14:02;;;;;;;72.78;40.40;;;;;;;;;;5013601;28;20537;-77
2024/01/13 09:16:28;;;;;;;62.08;40.28;;;;;;;;;;5002577;28;20028;-77
2024/01/13 09:18:54;;;;;;;67.53;39.08;;;;;;;;;;5030062;28;20029;-77
2024/01/13 09:21:20;;;;;;;65.45;40.97;;;;;;;;;;5024984;28;20152;-77
2024/01/13 09:23:47;;;;;;;64.30;38.88;;;;;;;;;;5017226;28;20108;-76
2024/01/13 09:26:13;;;;;;;64.15;40.40;;;;;;;;;;5021775;28;20029;-75
2024/01/13 09:28:39;;;;;;;58.28;39.50;;;;;;;;;;5010957;28;20130;-76
2024/01/13 09:31:06;;;;;;;70.15;40.67;;;;;;;;;;5008794;28;20038;-76
2024/01/13 09:33:32;;;;;;;59.97;39.08;;;;;;;;;;5013080;28;20036;-76
2024/01/13 09:35:58;;;;;;;64.35;39.92;;;;;;;;;;5013156;28;20038;-76
2024/01/13 09:38:24;;;;;;;61.72;37.45;;;;;;;;;;5007974;28;20041;-76
2024/01/13 09:40:51;;;;;;;62.92;36.15;;;;;;;;;;5015316;28;20057;-74
2024/01/13 09:43:32;;;;;;;61.53;39.15;;;;;;;;;;5009443;28;20278;-76
2024/01/13 09:45:58;;;;;;;52.65;33.72;;;;;;;;;;5013027;28;20030;-77
2024/01/13 09:48:24;;;;;;;50.80;34.58;;;;;;;;;;5015474;28;20049;-78
2024/01/13 09:50:52;;;;;;;54.50;34.90;;;;;;;;;;5015417;28;20527;-81
2024/01/13 09:53:31;;;;;;;59.08;34.80;;;;;;;;;;5006337;28;20781;-77
2024/01/13 09:56:09;;;;;;;50.88;34.88;;;;;;;;;;5008776;28;20034;-77
2024/01/13 09:58:35;;;;;;;51.10;35.00;;;;;;;;;;5010600;28;20064;-77
2024/01/13 10:01:01;;;;;;;53.88;34.15;;;;;;;;;;5007391;28;20030;-76
2024/01/13 10:03:27;;;;;;;53.42;35.13;;;;;;;;;;5008879;28;20037;-76
2024/01/13 10:05:53;;;;;;;54.80;36.53;;;;;;;;;;5010652;28;20069;-75
2024/01/13 10:08:32;;;;;;;54.20;34.53;;;;;;;;;;5013069;28;20060;-76
2024/01/13 10:10:59;;;;;;;54.30;35.67;;;;;;;;;;5013882;28;20049;-76
2024/01/13 10:13:25;;;;;;;55.20;32.83;;;;;;;;;;5016803;28;20029;-78
2024/01/13 10:15:55;;;;;;;55.85;33.60;;;;;;;;;;5016487;28;20043;-75
2024/01/13 10:18:21;;;;;;;47.03;31.35;;;;;;;;;;5022462;28;20030;-78
2024/01/13 10:20:48;;;;;;;45.65;31.15;;;;;;;;;;5024088;28;20463;-76
2024/01/13 10:23:14;;;;;;;54.85;32.08;;;;;;;;;;5017119;28;20042;-76
2024/01/13 10:25:40;;;;;;;50.40;32.13;;;;;;;;;;5016483;28;20045;-76
2024/01/13 10:28:06;;;;;;;54.47;30.30;;;;;;;;;;5017706;28;20417;-77
2024/01/13 10:30:32;;;;;;;50.83;31.95;;;;;;;;;;5022185;28;20442;-76
2024/01/13 10:32:59;;;;;;;61.75;39.15;;;;;;;;;;5004319;28;20040;-77
2024/01/13 10:35:25;;;;;;;49.42;32.58;;;;;;;;;;5018422;28;20022;-80
2024/01/13 10:37:51;;;;;;;51.75;33.92;;;;;;;;;;5019409;28;20117;-76
2024/01/13 10:40:17;;;;;;;53.45;30.77;;;;;;;;;;5020289;28;20147;-76
2024/01/13 10:42:48;;;;;;;54.17;28.08;;;;;;;;;;5019565;28;20398;-76
2024/01/13 10:45:16;;;;;;;41.88;26.23;;;;;;;;;;5022885;28;20084;-75
2024/01/13 10:47:42;;;;;;;43.45;26.77;;;;;;;;;;5024386;28;20030;-74
2024/01/13 10:50:10;;;;;;;78.95;41.60;;;;;;;;;;5024787;28;20029;-77
2024/01/13 10:52:46;;;;;;;44.28;24.30;;;;;;;;;;5020348;28;20034;-77
2024/01/13 10:55:12;;;;;;;46.13;27.75;;;;;;;;;;5021838;28;21412;-75
2024/01/13 10:57:40;;;;;;;57.45;30.98;;;;;;;;;;5018720;28;20037;-76
2024/01/13 11:00:10;;;;;;;51.05;28.90;;;;;;;;;;5019308;28;20521;-75
2024/01/13 11:02:37;;;;;;;51.78;29.90;;;;;;;;;;5017731;28;20050;-76
2024/01/13 11:05:04;;;;;;;47.58;25.55;;;;;;;;;;5025611;28;20038;-76
2024/01/13 11:07:31;;;;;;;42.58;23.15;;;;;;;;;;5020366;28;20526;-76
2024/01/13 11:09:58;;;;;;;39.47;23.17;;;;;;;;;;5035125;28;20056;-76
2024/01/13 11:12:29;;;;;;;43.58;24.25;;;;;;;;;;5002775;28;20082;-76
2024/01/13 11:14:59;;;;;;;35.72;24.35;;;;;;;;;;5022762;28;20032;-76
2024/01/13 11:17:25;;;;;;;37.00;21.85;;;;;;;;;;5021624;28;20025;-76
2024/01/13 11:19:51;;;;;;;42.30;23.40;;;;;;;;;;5019806;28;20034;-75
2024/01/13 11:22:31;;;;;;;42.72;22.35;;;;;;;;;;5019883;28;20387;-75
2024/01/13 11:24:57;;;;;;;37.25;22.25;;;;;;;;;;5021414;28;20029;-77
2024/01/13 11:27:23;;;;;;;38.45;21.40;;;;;;;;;;5005080;28;20036;-75
2024/01/13 11:29:49;;;;;;;38.25;19.98;;;;;;;;;;5023382;28;20191;-77
2024/01/13 11:32:15;;;;;;;39.25;21.40;;;;;;;;;;5024499;28;20188;-77
2024/01/13 11:34:42;;;;;;;32.38;18.30;;;;;;;;;;5023264;28;20081;-76
2024/01/13 11:37:10;;;;;;;38.30;17.92;;;;;;;;;;5022644;28;20022;-78
2024/01/13 11:39:36;;;;;;;30.30;17.15;;;;;;;;;;5016464;28;20038;-79
2024/01/13 11:42:03;;;;;;;68.40;19.17;;;;;;;;;;5020751;28;20033;-79
2024/01/13 11:44:35;;;;;;;26.08;16.55;;;;;;;;;;5018094;28;20041;-78
2024/01/13 11:47:01;;;;;;;37.42;17.52;;;;;;;;;;5014959;28;20033;-78
2024/01/13 11:49:31;;;;;;;32.25;13.82;;;;;;;;;;5019937;28;20053;-78
2024/01/13 11:52:04;;;;;;;34.17;15.18;;;;;;;;;;5019769;28;20028;-79
2024/01/13 11:54:32;;;;;;;28.27;13.93;;;;;;;;;;5022763;28;20086;-79
2024/01/13 11:56:58;;;;;;;27.67;14.13;;;;;;;;;;5019248;28;20049;-79
2024/01/13 11:59:25;;;;;;;36.10;17.17;;;;;;;;;;5015617;28;20037;-79
2024/01/13 12:01:52;;;;;;;32.03;15.95;;;;;;;;;;5002234;28;20615;-79
2024/01/13 12:04:18;;;;;;;30.08;13.55;;;;;;;;;;5019141;28;20021;-76
2024/01/13 12:06:45;;;;;;;24.40;14.48;;;;;;;;;;5017531;28;20049;-78
2024/01/13 12:09:12;;;;;;;24.25;11.93;;;;;;;;;;5024181;28;20033;-80
2024/01/13 12:11:39;;;;;;;24.63;12.88;;;;;;;;;;5022457;28;20041;-80
2024/01/13 12:14:05;;;;;;;21.50;11.43;;;;;;;;;;5020079;28;20128;-79
2024/01/13 12:16:32;;;;;;;23.25;11.40;;;;;;;;;;5003435;28;20033;-82
2024/01/13 12:18:58;;;;;;;23.70;12.68;;;;;;;;;;5020658;28;20410;-80
2024/01/13 12:21:25;;;;;;;22.95;12.48;;;;;;;;;;5021085;28;20044;-76
2024/01/13 12:23:51;;;;;;;22.38;12.57;;;;;;;;;;5001790;28;20045;-76
2024/01/13 12:26:17;;;;;;;20.25;12.32;;;;;;;;;;5016503;28;20106;-76
2024/01/13 12:28:43;;;;;;;24.17;11.57;;;;;;;;;;5019535;28;20029;-76
2024/01/13 12:31:10;;;;;;;20.83;11.82;;;;;;;;;;4996959;28;20030;-75
2024/01/13 12:33:36;;;;;;;22.67;10.82;;;;;;;;;;5009414;28;20552;-76
2024/01/13 12:36:03;;;;;;;19.30;10.85;;;;;;;;;;5010529;28;20132;-75
2024/01/13 12:38:30;;;;;;;35.33;21.55;;;;;;;;;;5011843;28;20068;-79
2024/01/13 12:40:57;;;;;;;18.58;8.32;;;;;;;;;;5012526;28;20626;-78
2024/01/13 12:43:23;;;;;;;20.25;8.23;;;;;;;;;;5013128;28;20156;-78
2024/01/13 12:45:50;;;;;;;13.73;7.22;;;;;;;;;;5011528;28;20033;-77
2024/01/13 12:48:16;;;;;;;14.63;7.45;;;;;;;;;;5013318;28;20061;-77
2024/01/13 12:50:43;;;;;;;17.35;6.75;;;;;;;;;;5013908;28;20044;-77
2024/01/13 12:53:09;;;;;;;14.60;6.25;;;;;;;;;;5008590;28;20041;-79
2024/01/13 12:55:35;;;;;;;12.05;5.05;;;;;;;;;;5009917;28;20026;-78
2024/01/13 12:58:03;;;;;;;12.48;5.45;;;;;;;;;;5011824;28;20036;-78
2024/01/13 13:00:29;;;;;;;76.85;36.35;;;;;;;;;;5021580;28;20056;-79
2024/01/13 13:02:56;;;;;;;12.57;4.72;;;;;;;;;;5014015;28;20037;-80
2024/01/13 13:05:23;;;;;;;13.45;4.78;;;;;;;;;;5010130;28;20079;-80
2024/01/13 13:07:50;;;;;;;8.13;4.63;;;;;;;;;;5011051;28;20048;-75
2024/01/13 13:10:18;;;;;;;8.48;3.97;;;;;;;;;;5012486;28;20033;-77
2024/01/13 13:12:44;;;;;;;9.10;4.28;;;;;;;;;;5019187;28;20029;-78
2024/01/13 13:15:10;;;;;;;13.18;5.70;;;;;;;;;;5011277;28;20033;-77
2024/01/13 13:17:36;;;;;;;13.30;4.70;;;;;;;;;;5007235;28;20436;-77
2024/01/13 13:20:03;;;;;;;10.30;4.25;;;;;;;;;;5016318;28;20138;-77
2024/01/13 13:22:33;;;;;;;9.95;3.50;;;;;;;;;;5008549;28;20029;-77
2024/01/13 13:25:00;;;;;;;8.00;3.60;;;;;;;;;;5012949;28;20080;-77
2024/01/13 13:27:27;;;;;;;9.00;3.38;;;;;;;;;;5023553;28;20444;-77
2024/01/13 13:29:53;;;;;;;12.10;2.80;;;;;;;;;;5016387;28;20077;-76
2024/01/13 13:32:20;;;;;;;7.53;4.90;;;;;;;;;;5027275;28;20544;-78
2024/01/13 13:34:46;;;;;;;6.65;3.65;;;;;;;;;;5009120;28;20041;-76
2024/01/13 13:37:12;;;;;;;13.65;3.72;;;;;;;;;;5010922;28;20030;-78
2024/01/13 13:39:38;;;;;;;11.40;2.90;;;;;;;;;;5036282;28;20022;-77
2024/01/13 13:42:05;;;;;;;8.98;3.17;;;;;;;;;;5013568;28;20108;-76
2024/01/13 13:44:35;;;;;;;17.67;3.17;;;;;;;;;;5016773;28;20088;-78
2024/01/13 13:47:02;;;;;;;9.82;3.72;;;;;;;;;;5014075;28;20033;-77
2024/01/13 13:49:28;;;;;;;16.88;5.65;;;;;;;;;;5008154;28;20030;-79
2024/01/13 13:51:56;;;;;;;17.63;7.13;;;;;;;;;;5013844;28;20469;-77
2024/01/13 13:54:22;;;;;;;19.63;7.53;;;;;;;;;;5024545;28;20041;-79
2024/01/13 13:56:48;;;;;;;16.85;3.08;;;;;;;;;;5011185;28;20029;-77
2024/01/13 13:59:15;;;;;;;12.40;3.00;;;;;;;;;;5008264;28;20041;-78
2024/01/13 14:01:41;;;;;;;11.68;3.20;;;;;;;;;;5033374;28;20042;-78
2024/01/13 14:04:09;;;;;;;12.93;3.88;;;;;;;;;;5026438;28;20040;-79
2024/01/13 14:06:35;;;;;;;15.88;2.58;;;;;;;;;;5010784;28;20057;-78
2024/01/13 14:09:01;;;;;;;18.13;2.42;;;;;;;;;;5007524;28;20042;-77
2024/01/13 14:11:27;;;;;;;20.27;4.07;;;;;;;;;;5010000;28;20026;-77
2024/01/13 14:13:54;;;;;;;8.32;2.80;;;;;;;;;;5025837;28;20184;-78
2024/01/13 14:16:20;;;;;;;9.55;2.83;;;;;;;;;;5017507;28;20030;-77
2024/01/13 14:18:47;;;;;;;12.15;2.92;;;;;;;;;;5022519;28;20038;-77
2024/01/13 14:21:17;;;;;;;6.53;2.75;;;;;;;;;;5031732;28;20372;-77
2024/01/13 14:23:43;;;;;;;11.52;1.85;;;;;;;;;;5011051;28;20041;-78
2024/01/13 14:26:12;;;;;;;9.65;1.73;;;;;;;;;;5009045;28;20034;-80